sensor_id;sensor_type;location;lat;lon;timestamp;pressure;altitude;pressure_sealevel;temperature;humidity
63535;BME280;55128;50.230;18.944;2023-11-18T00:03:10;98485.88;;;3.74;92.75
63535;BME280;55128;50.230;18.944;2023-11-18T00:08:11;98488.63;;;3.68;93.32
63535;BME280;55128;50.230;18.944;2023-11-18T00:13:11;98489.31;;;3.76;93.11
63535;BME280;55128;50.230;18.944;2023-11-18T00:18:12;98494.72;;;3.68;93.34
63535;BME280;55128;50.230;18.944;2023-11-18T00:23:12;98492.75;;;3.80;93.17
63535;BME280;55128;50.230;18.944;2023-11-18T00:28:12;98488.41;;;3.77;94.07
63535;BME280;55128;50.230;18.944;2023-11-18T00:33:13;98501.41;;;3.85;94.05
63535;BME280;55128;50.230;18.944;2023-11-18T00:38:13;98504.94;;;3.82;93.43
63535;BME280;55128;50.230;18.944;2023-11-18T00:43:14;98506.41;;;3.96;93.48
63535;BME280;55128;50.230;18.944;2023-11-18T00:48:14;98506.56;;;3.88;93.79
63535;BME280;55128;50.230;18.944;2023-11-18T00:53:15;98507.50;;;3.85;93.85
63535;BME280;55128;50.230;18.944;2023-11-18T00:58:15;98502.47;;;3.75;94.08
63535;BME280;55128;50.230;18.944;2023-11-18T01:03:15;98505.84;;;3.81;93.91
63535;BME280;55128;50.230;18.944;2023-11-18T01:08:16;98507.75;;;3.73;94.37
63535;BME280;55128;50.230;18.944;2023-11-18T01:13:17;98503.44;;;3.70;93.70
63535;BME280;55128;50.230;18.944;2023-11-18T01:18:17;98498.22;;;3.69;93.89
63535;BME280;55128;50.230;18.944;2023-11-18T01:23:18;98502.41;;;3.79;93.88
63535;BME280;55128;50.230;18.944;2023-11-18T01:28:18;98494.38;;;3.85;93.73
63535;BME280;55128;50.230;18.944;2023-11-18T01:33:19;98493.59;;;3.80;94.08
63535;BME280;55128;50.230;18.944;2023-11-18T01:38:19;98497.19;;;3.78;93.99
63535;BME280;55128;50.230;18.944;2023-11-18T01:43:20;98490.91;;;3.85;93.54
63535;BME280;55128;50.230;18.944;2023-11-18T01:48:22;98486.47;;;3.87;93.63
63535;BME280;55128;50.230;18.944;2023-11-18T01:53:23;98480.66;;;3.71;94.42
63535;BME280;55128;50.230;18.944;2023-11-18T01:58:24;98476.19;;;3.76;94.83
63535;BME280;55128;50.230;18.944;2023-11-18T02:03:26;98489.47;;;3.70;94.41
63535;BME280;55128;50.230;18.944;2023-11-18T02:08:27;98489.75;;;3.55;94.34
63535;BME280;55128;50.230;18.944;2023-11-18T02:13:34;98490.34;;;3.69;93.75
63535;BME280;55128;50.230;18.944;2023-11-18T02:18:38;98498.69;;;3.46;93.69
63535;BME280;55128;50.230;18.944;2023-11-18T02:23:41;98498.59;;;3.49;93.98
63535;BME280;55128;50.230;18.944;2023-11-18T02:28:42;98502.00;;;3.54;93.77
63535;BME280;55128;50.230;18.944;2023-11-18T02:33:50;98509.63;;;3.68;93.00
63535;BME280;55128;50.230;18.944;2023-11-18T02:38:54;98502.94;;;3.52;93.60
63535;BME280;55128;50.230;18.944;2023-11-18T02:43:56;98516.69;;;3.64;93.91
63535;BME280;55128;50.230;18.944;2023-11-18T02:48:58;98523.63;;;3.67;93.27
63535;BME280;55128;50.230;18.944;2023-11-18T02:53:58;98514.78;;;3.73;93.78
63535;BME280;55128;50.230;18.944;2023-11-18T02:58:59;98514.94;;;3.65;93.89
63535;BME280;55128;50.230;18.944;2023-11-18T03:04:01;98520.91;;;3.72;93.69
63535;BME280;55128;50.230;18.944;2023-11-18T03:09:02;98523.59;;;3.70;93.99
63535;BME280;55128;50.230;18.944;2023-11-18T03:14:07;98534.75;;;3.80;93.93
63535;BME280;55128;50.230;18.944;2023-11-18T03:19:09;98528.59;;;3.81;93.46
63535;BME280;55128;50.230;18.944;2023-11-18T03:24:10;98533.69;;;3.88;93.74
63535;BME280;55128;50.230;18.944;2023-11-18T03:29:10;98535.78;;;3.73;94.36
63535;BME280;55128;50.230;18.944;2023-11-18T03:34:13;98535.72;;;3.76;94.29
63535;BME280;55128;50.230;18.944;2023-11-18T03:39:14;98537.22;;;3.87;94.38
63535;BME280;55128;50.230;18.944;2023-11-18T03:44:14;98537.94;;;3.96;94.36
63535;BME280;55128;50.230;18.944;2023-11-18T03:49:15;98540.91;;;3.77;94.88
63535;BME280;55128;50.230;18.944;2023-11-18T03:54:15;98550.66;;;3.74;95.10
63535;BME280;55128;50.230;18.944;2023-11-18T03:59:15;98545.28;;;3.78;95.27
63535;BME280;55128;50.230;18.944;2023-11-18T04:04:17;98555.81;;;3.77;95.03
63535;BME280;55128;50.230;18.944;2023-11-18T04:09:17;98563.72;;;3.75;95.31
63535;BME280;55128;50.230;18.944;2023-11-18T04:14:18;98556.06;;;3.64;95.54
63535;BME280;55128;50.230;18.944;2023-11-18T04:19:19;98563.00;;;3.67;95.63
63535;BME280;55128;50.230;18.944;2023-11-18T04:24:19;98570.06;;;3.65;95.14
63535;BME280;55128;50.230;18.944;2023-11-18T04:29:20;98570.88;;;3.67;95.19
63535;BME280;55128;50.230;18.944;2023-11-18T04:34:22;98573.34;;;3.76;95.05
63535;BME280;55128;50.230;18.944;2023-11-18T04:39:22;98569.78;;;3.79;94.49
63535;BME280;55128;50.230;18.944;2023-11-18T04:44:22;98568.91;;;3.78;94.92
63535;BME280;55128;50.230;18.944;2023-11-18T04:49:23;98573.19;;;3.82;95.14
63535;BME280;55128;50.230;18.944;2023-11-18T04:54:24;98574.22;;;3.75;94.46
63535;BME280;55128;50.230;18.944;2023-11-18T04:59:25;98574.50;;;3.61;94.86
63535;BME280;55128;50.230;18.944;2023-11-18T05:04:25;98570.00;;;3.68;94.78
63535;BME280;55128;50.230;18.944;2023-11-18T05:09:26;98571.75;;;3.66;94.98
63535;BME280;55128;50.230;18.944;2023-11-18T05:14:26;98571.91;;;3.58;94.90
63535;BME280;55128;50.230;18.944;2023-11-18T05:19:27;98577.75;;;3.74;95.23
63535;BME280;55128;50.230;18.944;2023-11-18T05:24:27;98584.72;;;3.75;94.99
63535;BME280;55128;50.230;18.944;2023-11-18T05:29:28;98576.47;;;3.95;94.62
63535;BME280;55128;50.230;18.944;2023-11-18T05:34:29;98591.34;;;3.95;93.50
63535;BME280;55128;50.230;18.944;2023-11-18T05:39:29;98591.41;;;3.92;93.73
63535;BME280;55128;50.230;18.944;2023-11-18T05:44:31;98594.22;;;3.81;94.39
63535;BME280;55128;50.230;18.944;2023-11-18T05:49:37;98596.88;;;3.81;94.25
63535;BME280;55128;50.230;18.944;2023-11-18T05:54:38;98599.66;;;3.72;94.68
63535;BME280;55128;50.230;18.944;2023-11-18T05:59:39;98613.00;;;3.61;94.60
63535;BME280;55128;50.230;18.944;2023-11-18T06:04:39;98608.06;;;3.44;94.75
63535;BME280;55128;50.230;18.944;2023-11-18T06:09:41;98628.38;;;3.31;95.05
63535;BME280;55128;50.230;18.944;2023-11-18T06:14:42;98641.53;;;3.29;95.52
63535;BME280;55128;50.230;18.944;2023-11-18T06:19:44;98648.38;;;3.38;95.47
63535;BME280;55128;50.230;18.944;2023-11-18T06:24:45;98657.97;;;3.39;95.67
63535;BME280;55128;50.230;18.944;2023-11-18T06:29:46;98663.22;;;3.39;96.26
63535;BME280;55128;50.230;18.944;2023-11-18T06:34:46;98668.13;;;3.61;95.48
63535;BME280;55128;50.230;18.944;2023-11-18T06:39:46;98668.97;;;3.63;93.63
63535;BME280;55128;50.230;18.944;2023-11-18T06:44:47;98680.03;;;3.27;93.56
63535;BME280;55128;50.230;18.944;2023-11-18T06:49:49;98684.41;;;3.28;94.38
63535;BME280;55128;50.230;18.944;2023-11-18T06:54:52;98696.38;;;3.43;93.53
63535;BME280;55128;50.230;18.944;2023-11-18T06:59:54;98705.03;;;3.50;93.32
63535;BME280;55128;50.230;18.944;2023-11-18T07:04:54;98699.75;;;3.53;92.53
63535;BME280;55128;50.230;18.944;2023-11-18T07:09:55;98708.47;;;3.55;93.23
63535;BME280;55128;50.230;18.944;2023-11-18T07:14:56;98722.16;;;3.73;92.41
63535;BME280;55128;50.230;18.944;2023-11-18T07:19:56;98726.63;;;3.66;91.90
63535;BME280;55128;50.230;18.944;2023-11-18T07:24:56;98729.19;;;3.72;91.30
63535;BME280;55128;50.230;18.944;2023-11-18T07:29:57;98723.13;;;3.67;90.94
63535;BME280;55128;50.230;18.944;2023-11-18T07:34:58;98718.06;;;4.07;89.44
63535;BME280;55128;50.230;18.944;2023-11-18T07:39:59;98719.44;;;4.27;88.66
63535;BME280;55128;50.230;18.944;2023-11-18T07:45:06;98723.25;;;4.11;88.74
63535;BME280;55128;50.230;18.944;2023-11-18T07:50:18;98725.78;;;4.17;89.27
63535;BME280;55128;50.230;18.944;2023-11-18T07:55:20;98727.69;;;4.52;87.79
63535;BME280;55128;50.230;18.944;2023-11-18T08:00:23;98736.88;;;4.31;87.44
63535;BME280;55128;50.230;18.944;2023-11-18T08:05:24;98723.72;;;4.33;87.54
63535;BME280;55128;50.230;18.944;2023-11-18T08:10:25;98732.94;;;4.07;88.95
63535;BME280;55128;50.230;18.944;2023-11-18T08:15:26;98740.97;;;3.99;89.24
63535;BME280;55128;50.230;18.944;2023-11-18T08:20:29;98743.66;;;3.96;89.80
63535;BME280;55128;50.230;18.944;2023-11-18T08:25:31;98741.31;;;3.79;89.07
63535;BME280;55128;50.230;18.944;2023-11-18T08:30:36;98758.13;;;3.66;90.17
63535;BME280;55128;50.230;18.944;2023-11-18T08:35:37;98766.09;;;3.61;91.14
63535;BME280;55128;50.230;18.944;2023-11-18T08:40:38;98772.91;;;3.73;91.27
63535;BME280;55128;50.230;18.944;2023-11-18T08:45:38;98783.97;;;3.36;91.63
63535;BME280;55128;50.230;18.944;2023-11-18T08:50:39;98793.56;;;3.37;91.98
63535;BME280;55128;50.230;18.944;2023-11-18T08:55:40;98798.81;;;3.37;91.30
63535;BME280;55128;50.230;18.944;2023-11-18T09:00:42;98798.78;;;3.40;90.78
63535;BME280;55128;50.230;18.944;2023-11-18T09:05:48;98790.84;;;3.43;91.35
63535;BME280;55128;50.230;18.944;2023-11-18T09:10:56;98809.28;;;3.40;90.58
63535;BME280;55128;50.230;18.944;2023-11-18T09:16:00;98814.38;;;3.51;90.35
63535;BME280;55128;50.230;18.944;2023-11-18T09:21:01;98811.06;;;3.38;90.98
63535;BME280;55128;50.230;18.944;2023-11-18T09:26:04;98825.63;;;3.59;90.32
63535;BME280;55128;50.230;18.944;2023-11-18T09:31:07;98827.06;;;3.17;91.57
63535;BME280;55128;50.230;18.944;2023-11-18T09:36:15;98827.38;;;2.92;91.54
63535;BME280;55128;50.230;18.944;2023-11-18T09:41:18;98843.09;;;2.92;90.73
63535;BME280;55128;50.230;18.944;2023-11-18T09:46:25;98842.38;;;2.81;92.36
63535;BME280;55128;50.230;18.944;2023-11-18T09:51:33;98855.56;;;2.75;90.87
63535;BME280;55128;50.230;18.944;2023-11-18T10:02:09;98871.47;;;2.55;89.88
63535;BME280;55128;50.230;18.944;2023-11-18T10:07:10;98870.84;;;2.26;90.22
63535;BME280;55128;50.230;18.944;2023-11-18T10:12:12;98880.09;;;2.67;90.04
63535;BME280;55128;50.230;18.944;2023-11-18T10:17:19;98876.75;;;2.50;88.81
63535;BME280;55128;50.230;18.944;2023-11-18T10:22:24;98881.00;;;2.62;89.43
63535;BME280;55128;50.230;18.944;2023-11-18T10:27:29;98890.16;;;2.16;90.50
63535;BME280;55128;50.230;18.944;2023-11-18T10:32:30;98901.59;;;2.03;90.00
63535;BME280;55128;50.230;18.944;2023-11-18T10:37:35;98900.75;;;1.98;89.08
63535;BME280;55128;50.230;18.944;2023-11-18T10:42:42;98908.78;;;1.73;90.13
63535;BME280;55128;50.230;18.944;2023-11-18T10:47:49;98922.66;;;1.84;90.06
63535;BME280;55128;50.230;18.944;2023-11-18T10:52:49;98931.28;;;1.99;90.29
63535;BME280;55128;50.230;18.944;2023-11-18T10:57:50;98937.22;;;2.24;89.35
63535;BME280;55128;50.230;18.944;2023-11-18T11:02:57;98943.19;;;2.41;88.99
63535;BME280;55128;50.230;18.944;2023-11-18T11:07:59;98947.59;;;2.38;88.48
63535;BME280;55128;50.230;18.944;2023-11-18T11:13:05;98962.69;;;2.00;88.59
63535;BME280;55128;50.230;18.944;2023-11-18T11:18:10;98960.88;;;2.10;88.13
63535;BME280;55128;50.230;18.944;2023-11-18T11:23:21;98959.16;;;2.04;88.31
63535;BME280;55128;50.230;18.944;2023-11-18T11:33:57;98976.69;;;1.98;88.02
63535;BME280;55128;50.230;18.944;2023-11-18T11:38:59;98976.63;;;2.07;87.77
63535;BME280;55128;50.230;18.944;2023-11-18T11:44:01;98983.38;;;2.40;87.91
63535;BME280;55128;50.230;18.944;2023-11-18T11:49:02;98988.88;;;2.02;86.61
63535;BME280;55128;50.230;18.944;2023-11-18T11:54:29;98999.19;;;2.25;85.91
63535;BME280;55128;50.230;18.944;2023-11-18T12:04:55;99013.25;;;2.11;86.64
63535;BME280;55128;50.230;18.944;2023-11-18T12:09:59;99013.38;;;1.85;87.49
63535;BME280;55128;50.230;18.944;2023-11-18T12:15:00;99014.19;;;2.03;87.49
63535;BME280;55128;50.230;18.944;2023-11-18T12:20:38;99021.16;;;2.01;87.44
63535;BME280;55128;50.230;18.944;2023-11-18T12:25:42;99024.56;;;2.13;87.33
63535;BME280;55128;50.230;18.944;2023-11-18T12:30:44;99019.34;;;2.17;87.63
63535;BME280;55128;50.230;18.944;2023-11-18T12:41:37;99028.09;;;2.08;87.32
63535;BME280;55128;50.230;18.944;2023-11-18T12:46:51;99027.19;;;2.18;87.56
63535;BME280;55128;50.230;18.944;2023-11-18T12:51:54;99037.72;;;2.09;87.59
63535;BME280;55128;50.230;18.944;2023-11-18T12:56:56;99049.13;;;1.89;87.32
63535;BME280;55128;50.230;18.944;2023-11-18T13:01:56;99049.84;;;2.25;87.14
63535;BME280;55128;50.230;18.944;2023-11-18T13:06:57;99061.31;;;1.97;86.08
63535;BME280;55128;50.230;18.944;2023-11-18T13:12:00;99062.28;;;1.77;87.26
63535;BME280;55128;50.230;18.944;2023-11-18T13:17:05;99060.53;;;1.78;87.08
63535;BME280;55128;50.230;18.944;2023-11-18T13:22:10;99074.38;;;2.09;87.09
63535;BME280;55128;50.230;18.944;2023-11-18T13:27:18;99077.94;;;1.80;87.42
63535;BME280;55128;50.230;18.944;2023-11-18T13:32:20;99078.81;;;1.84;87.85
63535;BME280;55128;50.230;18.944;2023-11-18T13:37:26;99085.84;;;1.79;88.81
63535;BME280;55128;50.230;18.944;2023-11-18T13:42:27;99090.19;;;1.81;88.47
63535;BME280;55128;50.230;18.944;2023-11-18T13:47:31;99091.09;;;1.69;88.27
63535;BME280;55128;50.230;18.944;2023-11-18T13:52:32;99098.06;;;1.70;88.54
63535;BME280;55128;50.230;18.944;2023-11-18T13:57:32;99109.44;;;1.62;89.15
63535;BME280;55128;50.230;18.944;2023-11-18T14:02:33;99110.19;;;1.96;89.21
63535;BME280;55128;50.230;18.944;2023-11-18T14:07:38;99114.56;;;1.89;88.18
63535;BME280;55128;50.230;18.944;2023-11-18T14:13:15;99119.78;;;1.99;88.68
63535;BME280;55128;50.230;18.944;2023-11-18T14:18:17;99122.41;;;2.02;88.56
63535;BME280;55128;50.230;18.944;2023-11-18T14:23:17;99118.00;;;2.10;87.82
63535;BME280;55128;50.230;18.944;2023-11-18T14:28:18;99133.81;;;1.79;88.65
63535;BME280;55128;50.230;18.944;2023-11-18T14:33:23;99128.50;;;2.01;89.26
63535;BME280;55128;50.230;18.944;2023-11-18T14:38:23;99123.34;;;1.67;88.87
63535;BME280;55128;50.230;18.944;2023-11-18T14:43:24;99118.94;;;1.92;89.76
63535;BME280;55128;50.230;18.944;2023-11-18T14:48:24;99118.03;;;2.07;88.64
63535;BME280;55128;50.230;18.944;2023-11-18T14:53:24;99120.59;;;2.16;87.64
63535;BME280;55128;50.230;18.944;2023-11-18T14:58:26;99118.03;;;2.08;87.49
63535;BME280;55128;50.230;18.944;2023-11-18T15:03:26;99139.81;;;2.18;87.73
63535;BME280;55128;50.230;18.944;2023-11-18T15:08:27;99134.56;;;2.15;87.32
63535;BME280;55128;50.230;18.944;2023-11-18T15:13:27;99134.53;;;2.24;87.36
63535;BME280;55128;50.230;18.944;2023-11-18T15:18:28;99141.44;;;2.42;87.64
63535;BME280;55128;50.230;18.944;2023-11-18T15:23:28;99154.56;;;2.38;86.78
63535;BME280;55128;50.230;18.944;2023-11-18T15:28:29;99151.97;;;2.28;86.91
63535;BME280;55128;50.230;18.944;2023-11-18T15:33:31;99163.34;;;2.24;87.15
63535;BME280;55128;50.230;18.944;2023-11-18T15:38:32;99172.91;;;2.36;86.95
63535;BME280;55128;50.230;18.944;2023-11-18T15:43:34;99163.34;;;2.27;86.65
63535;BME280;55128;50.230;18.944;2023-11-18T15:48:34;99168.69;;;1.93;87.32
63535;BME280;55128;50.230;18.944;2023-11-18T15:53:35;99165.13;;;2.10;87.77
63535;BME280;55128;50.230;18.944;2023-11-18T15:58:36;99164.22;;;2.29;87.89
63535;BME280;55128;50.230;18.944;2023-11-18T16:03:37;99165.06;;;2.28;87.08
63535;BME280;55128;50.230;18.944;2023-11-18T16:08:38;99173.00;;;2.14;86.67
63535;BME280;55128;50.230;18.944;2023-11-18T16:13:38;99167.78;;;2.08;88.06
63535;BME280;55128;50.230;18.944;2023-11-18T16:18:39;99166.84;;;2.20;86.50
63535;BME280;55128;50.230;18.944;2023-11-18T16:23:39;99167.75;;;2.13;86.38
63535;BME280;55128;50.230;18.944;2023-11-18T16:28:39;99175.50;;;2.34;86.82
63535;BME280;55128;50.230;18.944;2023-11-18T16:33:40;99170.34;;;2.19;86.72
63535;BME280;55128;50.230;18.944;2023-11-18T16:38:43;99164.22;;;2.16;86.42
63535;BME280;55128;50.230;18.944;2023-11-18T16:43:43;99162.53;;;2.08;86.95
63535;BME280;55128;50.230;18.944;2023-11-18T16:48:44;99177.41;;;1.86;86.18
63535;BME280;55128;50.230;18.944;2023-11-18T16:53:45;99181.72;;;2.09;86.49
63535;BME280;55128;50.230;18.944;2023-11-18T16:58:45;99177.31;;;2.23;85.44
63535;BME280;55128;50.230;18.944;2023-11-18T17:03:45;99182.59;;;2.14;85.98
63535;BME280;55128;50.230;18.944;2023-11-18T17:08:47;99180.81;;;2.24;85.90
63535;BME280;55128;50.230;18.944;2023-11-18T17:13:48;99200.06;;;1.95;85.64
63535;BME280;55128;50.230;18.944;2023-11-18T17:18:49;99203.59;;;1.86;85.71
63535;BME280;55128;50.230;18.944;2023-11-18T17:23:50;99214.91;;;2.05;86.13
63535;BME280;55128;50.230;18.944;2023-11-18T17:28:50;99202.69;;;2.10;85.75
63535;BME280;55128;50.230;18.944;2023-11-18T17:33:51;99198.25;;;2.26;85.14
63535;BME280;55128;50.230;18.944;2023-11-18T17:38:51;99204.34;;;2.39;84.71
63535;BME280;55128;50.230;18.944;2023-11-18T17:43:51;99208.78;;;2.06;84.92
63535;BME280;55128;50.230;18.944;2023-11-18T17:48:52;99220.94;;;2.33;85.05
63535;BME280;55128;50.230;18.944;2023-11-18T17:53:52;99214.84;;;2.18;84.48
63535;BME280;55128;50.230;18.944;2023-11-18T17:58:53;99219.25;;;2.14;83.80
63535;BME280;55128;50.230;18.944;2023-11-18T18:03:53;99221.81;;;2.23;84.04
63535;BME280;55128;50.230;18.944;2023-11-18T18:08:53;99225.34;;;2.18;82.96
63535;BME280;55128;50.230;18.944;2023-11-18T18:13:55;99218.38;;;2.17;83.90
63535;BME280;55128;50.230;18.944;2023-11-18T18:18:55;99205.28;;;2.09;83.25
63535;BME280;55128;50.230;18.944;2023-11-18T18:23:57;99184.38;;;2.00;83.39
63535;BME280;55128;50.230;18.944;2023-11-18T18:28:57;99186.13;;;1.98;83.08
63535;BME280;55128;50.230;18.944;2023-11-18T18:33:58;99194.84;;;1.98;83.39
63535;BME280;55128;50.230;18.944;2023-11-18T18:38:58;99198.28;;;2.17;83.35
63535;BME280;55128;50.230;18.944;2023-11-18T18:43:58;99173.81;;;2.24;82.10
63535;BME280;55128;50.230;18.944;2023-11-18T18:48:59;99169.50;;;2.11;81.98
63535;BME280;55128;50.230;18.944;2023-11-18T18:54:00;99177.34;;;2.14;82.28
63535;BME280;55128;50.230;18.944;2023-11-18T18:59:01;99176.53;;;1.90;81.12
63535;BME280;55128;50.230;18.944;2023-11-18T19:04:04;99184.38;;;2.00;80.58
63535;BME280;55128;50.230;18.944;2023-11-18T19:09:05;99174.75;;;2.14;81.38
63535;BME280;55128;50.230;18.944;2023-11-18T19:14:09;99180.00;;;2.03;80.50
63535;BME280;55128;50.230;18.944;2023-11-18T19:19:09;99177.34;;;2.09;80.04
63535;BME280;55128;50.230;18.944;2023-11-18T19:24:10;99174.72;;;2.06;79.50
63535;BME280;55128;50.230;18.944;2023-11-18T19:29:13;99168.53;;;2.33;80.10
63535;BME280;55128;50.230;18.944;2023-11-18T19:34:13;99151.91;;;2.45;79.10
63535;BME280;55128;50.230;18.944;2023-11-18T19:39:14;99148.44;;;2.37;78.93
63535;BME280;55128;50.230;18.944;2023-11-18T19:44:14;99149.31;;;2.41;79.02
63535;BME280;55128;50.230;18.944;2023-11-18T19:49:16;99136.22;;;2.42;78.99
63535;BME280;55128;50.230;18.944;2023-11-18T19:54:17;99156.31;;;2.32;79.43
63535;BME280;55128;50.230;18.944;2023-11-18T19:59:18;99156.28;;;2.40;78.91
63535;BME280;55128;50.230;18.944;2023-11-18T20:04:18;99158.91;;;2.43;78.20
63535;BME280;55128;50.230;18.944;2023-11-18T20:09:18;99140.69;;;2.06;78.65
63535;BME280;55128;50.230;18.944;2023-11-18T20:14:21;99143.28;;;2.17;78.84
63535;BME280;55128;50.230;18.944;2023-11-18T20:19:22;99150.19;;;2.41;78.45
63535;BME280;55128;50.230;18.944;2023-11-18T20:24:23;99149.31;;;2.41;78.80
63535;BME280;55128;50.230;18.944;2023-11-18T20:29:24;99138.84;;;2.39;78.22
63535;BME280;55128;50.230;18.944;2023-11-18T20:34:24;99144.94;;;2.44;78.41
63535;BME280;55128;50.230;18.944;2023-11-18T20:39:24;99124.84;;;2.45;78.63
63535;BME280;55128;50.230;18.944;2023-11-18T20:44:25;99112.63;;;2.42;77.95
63535;BME280;55128;50.230;18.944;2023-11-18T20:49:25;99099.50;;;2.48;77.84
63535;BME280;55128;50.230;18.944;2023-11-18T20:54:27;99103.91;;;2.32;77.19
63535;BME280;55128;50.230;18.944;2023-11-18T20:59:27;99096.91;;;2.41;76.94
63535;BME280;55128;50.230;18.944;2023-11-18T21:04:28;99102.25;;;2.21;77.48
63535;BME280;55128;50.230;18.944;2023-11-18T21:09:29;99076.88;;;2.32;78.11
63535;BME280;55128;50.230;18.944;2023-11-18T21:14:29;99070.78;;;2.30;78.11
63535;BME280;55128;50.230;18.944;2023-11-18T21:19:30;99074.25;;;2.33;78.41
63535;BME280;55128;50.230;18.944;2023-11-18T21:24:31;99069.00;;;2.37;77.47
63535;BME280;55128;50.230;18.944;2023-11-18T21:29:31;99065.53;;;2.33;76.13
63535;BME280;55128;50.230;18.944;2023-11-18T21:34:32;99052.56;;;2.04;75.65
63535;BME280;55128;50.230;18.944;2023-11-18T21:39:32;99050.03;;;1.85;77.05
63535;BME280;55128;50.230;18.944;2023-11-18T21:44:34;99042.28;;;1.53;78.24
63535;BME280;55128;50.230;18.944;2023-11-18T21:49:37;99050.19;;;1.14;79.60
63535;BME280;55128;50.230;18.944;2023-11-18T21:54:37;99041.50;;;0.95;81.40
63535;BME280;55128;50.230;18.944;2023-11-18T21:59:38;99049.34;;;0.75;82.30
63535;BME280;55128;50.230;18.944;2023-11-18T22:04:39;99053.72;;;0.70;82.92
63535;BME280;55128;50.230;18.944;2023-11-18T22:09:39;99059.78;;;0.42;84.47
63535;BME280;55128;50.230;18.944;2023-11-18T22:14:40;99063.22;;;0.30;85.34
63535;BME280;55128;50.230;18.944;2023-11-18T22:19:40;99058.84;;;0.21;85.59
63535;BME280;55128;50.230;18.944;2023-11-18T22:24:45;99045.75;;;0.07;86.42
63535;BME280;55128;50.230;18.944;2023-11-18T22:29:45;99043.16;;;0.04;86.16
63535;BME280;55128;50.230;18.944;2023-11-18T22:34:49;99031.72;;;-0.23;87.23
63535;BME280;55128;50.230;18.944;2023-11-18T22:39:51;99013.50;;;-0.18;87.44
63535;BME280;55128;50.230;18.944;2023-11-18T22:44:54;99003.03;;;-0.27;88.06
63535;BME280;55128;50.230;18.944;2023-11-18T22:49:54;98986.41;;;-0.54;88.92
63535;BME280;55128;50.230;18.944;2023-11-18T22:54:57;98989.84;;;-0.61;89.20
63535;BME280;55128;50.230;18.944;2023-11-18T22:59:57;98978.53;;;-0.63;89.73
63535;BME280;55128;50.230;18.944;2023-11-18T23:04:59;98992.47;;;-0.56;89.55
63535;BME280;55128;50.230;18.944;2023-11-18T23:10:06;98983.72;;;-0.66;90.27
63535;BME280;55128;50.230;18.944;2023-11-18T23:15:07;98975.06;;;-0.59;90.27
63535;BME280;55128;50.230;18.944;2023-11-18T23:20:08;98971.47;;;-0.83;91.44
63535;BME280;55128;50.230;18.944;2023-11-18T23:25:12;98966.16;;;-1.03;91.56
63535;BME280;55128;50.230;18.944;2023-11-18T23:30:13;98969.75;;;-0.84;90.92
63535;BME280;55128;50.230;18.944;2023-11-18T23:35:13;98969.75;;;-0.79;90.43
63535;BME280;55128;50.230;18.944;2023-11-18T23:40:14;98958.34;;;-1.00;90.79
63535;BME280;55128;50.230;18.944;2023-11-18T23:45:18;98951.34;;;-1.11;92.10
63535;BME280;55128;50.230;18.944;2023-11-18T23:50:18;98944.47;;;-1.03;91.66
63535;BME280;55128;50.230;18.944;2023-11-18T23:55:19;98937.50;;;-1.04;91.42
